ESPA/LLA METAR and TAF weather

Enter ICAO airport designator
Station Type Date Time Source
ESPA METAR 2020/02/24 07:20 UTC NOAA

ESPA 240720Z 31019KT CAVOK 01/M06 Q0982


Station Type Date Time Source
ESPA Decoded METAR 2020/02/24 07:20 UTC NOAA

Lulea / Kallax, Sweden (ESPA) 65-33N 022-08E 34M
Feb 24, 2020 - 02:20 AM EST / 2020.02.24 0720 UTC
Wind: from the NW (310 degrees) at 22 MPH (19 KT):0
Visibility: greater than 7 mile(s):0
Temperature: 33 F (1 C)
Windchill: 21 F (-6 C):1
Dew Point: 21 F (-6 C)
Relative Humidity: 59%
Pressure (altimeter): 29.00 in. Hg (0982 hPa)
ob: ESPA 240720Z 31019KT CAVOK 01/M06 Q0982
cycle: 7

Station Type Date Time Source
ESPA TAF 2019/02/04 06:27 UTC NOAA

TAF TAF ESPA 040820Z 0406/0418 01010KT 2000 SN VV020
TEMPO 0409/0414 1000 +SN DRSN VV009
BECMG 0414/0416 32010KT 5000 -SN VV030
RMK MIL

Example: see airport list